createdAt,value
2022-08-07T00:01:43.728Z,100066.25
2022-08-07T00:04:11.359Z,100067.50
2022-08-07T00:06:51.691Z,100068.75
2022-08-07T00:09:22.719Z,100066.31
2022-08-07T00:14:25.371Z,100058.97
2022-08-07T00:16:58.942Z,100052.47
2022-08-07T00:20:00.426Z,100057.25
2022-08-07T00:22:13.044Z,100053.38
2022-08-07T00:24:51.944Z,100054.63
2022-08-07T00:27:18.989Z,100048.50
2022-08-07T00:29:49.953Z,100049.97
2022-08-07T00:32:17.873Z,100051.25
2022-08-07T00:34:55.217Z,100049.84
2022-08-07T00:37:22.599Z,100040.06
2022-08-07T00:39:54.269Z,100039.84
2022-08-07T00:42:25.459Z,100043.56
2022-08-07T00:44:56.456Z,100042.00
2022-08-07T00:48:07.477Z,100030.00
2022-08-07T00:50:20.123Z,100047.34
2022-08-07T00:52:57.624Z,100045.34
2022-08-07T00:56:03.276Z,100039.03
2022-08-07T00:58:12.896Z,100043.56
2022-08-07T01:00:53.896Z,100040.06
2022-08-07T01:03:55.928Z,100044.00
2022-08-07T01:06:09.815Z,100042.59
2022-08-07T01:08:42.985Z,100043.03
2022-08-07T01:12:23.336Z,100043.25
2022-08-07T01:14:07.403Z,100051.94
2022-08-07T01:16:36.946Z,100040.91
2022-08-07T01:19:10.957Z,100052.38
2022-08-07T01:21:57.120Z,100045.44
2022-08-07T01:24:32.121Z,100035.22
2022-08-07T01:27:01.496Z,100036.47
2022-08-07T01:29:33.666Z,100039.34
2022-08-07T01:32:05.626Z,100039.56
2022-08-07T01:34:47.283Z,100040.03
2022-08-07T01:37:18.978Z,100037.56
2022-08-07T01:39:49.160Z,100035.34
2022-08-07T01:42:40.074Z,100039.06
2022-08-07T01:45:18.290Z,100036.25
2022-08-07T01:48:19.744Z,100022.63
2022-08-07T01:50:40.264Z,100037.88
2022-08-07T01:53:21.050Z,100038.91
2022-08-07T01:56:01.229Z,100031.97
2022-08-07T01:58:37.612Z,100035.22
2022-08-07T02:01:58.798Z,100033.81
2022-08-07T02:04:17.766Z,100033.81
2022-08-07T02:06:52.717Z,100035.06
2022-08-07T02:09:52.087Z,100029.16
2022-08-07T02:12:17.594Z,100037.16
2022-08-07T02:14:58.530Z,100025.66
2022-08-07T02:17:49.771Z,100029.38
2022-08-07T02:20:23.894Z,100031.41
2022-08-07T02:22:59.930Z,100026.31
2022-08-07T02:26:10.021Z,100022.63
2022-08-07T02:28:25.576Z,100021.16
2022-08-07T02:30:59.249Z,100021.16
2022-08-07T02:33:32.830Z,100021.94
2022-08-07T02:36:29.878Z,100024.41
2022-08-07T02:38:59.086Z,100028.50
2022-08-07T02:41:33.435Z,100024.75
2022-08-07T02:44:05.737Z,100030.91
2022-08-07T02:46:36.674Z,100029.06
2022-08-07T02:49:05.828Z,100031.28
2022-08-07T02:51:49.668Z,100026.75
2022-08-07T02:54:22.277Z,100034.31
2022-08-07T02:56:55.636Z,100026.31
2022-08-07T02:59:27.472Z,100033.66
2022-08-07T03:02:01.940Z,100036.47
2022-08-07T03:04:31.508Z,100031.13
2022-08-07T03:07:07.060Z,100036.38
2022-08-07T03:09:43.653Z,100038.38
2022-08-07T03:12:21.899Z,100041.44
2022-08-07T03:14:56.464Z,100043.22
2022-08-07T03:17:24.194Z,100032.53
2022-08-07T03:19:55.584Z,100040.75
2022-08-07T03:22:29.662Z,100041.34
2022-08-07T03:25:00.382Z,100042.28
2022-08-07T03:27:59.046Z,100043.59
2022-08-07T03:30:24.334Z,100037.47
2022-08-07T03:32:58.860Z,100043.09
2022-08-07T03:35:43.774Z,100040.22
2022-08-07T03:38:21.184Z,100043.47
2022-08-07T03:40:53.820Z,100040.78
2022-08-07T03:43:32.274Z,100023.69
2022-08-07T03:46:03.346Z,100029.75
2022-08-07T03:48:33.588Z,100023.31
2022-08-07T03:51:13.982Z,100031.56
2022-08-07T03:54:05.823Z,100038.06
2022-08-07T03:56:34.299Z,100042.03
2022-08-07T03:59:09.662Z,100043.81
2022-08-07T04:01:45.180Z,100042.78
2022-08-07T04:04:17.939Z,100037.31
2022-08-07T04:06:50.772Z,100033.16
2022-08-07T04:09:23.248Z,100037.22
2022-08-07T04:12:27.090Z,100029.41
2022-08-07T04:14:46.157Z,100038.19
2022-08-07T04:17:20.851Z,100045.75
2022-08-07T04:19:54.171Z,100037.66
2022-08-07T04:22:28.913Z,100044.00
2022-08-07T04:25:02.073Z,100040.41
2022-08-07T04:27:36.273Z,100038.44
2022-08-07T04:30:21.566Z,100039.13
2022-08-07T04:33:07.649Z,100042.94
2022-08-07T04:35:38.293Z,100044.44
2022-08-07T04:38:13.049Z,100038.88
2022-08-07T04:40:51.837Z,100046.06
2022-08-07T04:44:11.344Z,100040.38
2022-08-07T04:46:59.562Z,100041.66
2022-08-07T04:50:04.154Z,100049.41
2022-08-07T04:52:52.575Z,100057.72
2022-08-07T04:58:16.617Z,100049.03
2022-08-07T04:59:15.931Z,100042.78
2022-08-07T05:01:39.936Z,100050.34
2022-08-07T05:04:17.153Z,100043.38
2022-08-07T05:06:51.644Z,100056.84
2022-08-07T05:09:45.335Z,100052.25
2022-08-07T05:12:27.158Z,100046.19
2022-08-07T05:15:23.031Z,100035.50
2022-08-07T05:18:09.228Z,100033.38
2022-08-07T05:20:46.748Z,100037.81
2022-08-07T05:23:23.111Z,100032.72
2022-08-07T05:26:13.890Z,100031.84
2022-08-07T05:28:51.394Z,100028.16
2022-08-07T05:31:35.119Z,100036.28
2022-08-07T05:34:11.195Z,100024.13
2022-08-07T05:36:43.631Z,100046.94
2022-08-07T05:40:16.750Z,100062.56
2022-08-07T05:42:12.697Z,100046.28
2022-08-07T05:44:46.588Z,100032.53
2022-08-07T05:47:21.467Z,100048.41
2022-08-07T05:50:07.808Z,100057.75
2022-08-07T05:52:36.834Z,100049.63
2022-08-07T05:55:10.996Z,100046.88
2022-08-07T05:57:44.976Z,100048.63
2022-08-07T06:00:15.936Z,100059.94
2022-08-07T06:02:53.261Z,100062.03
2022-08-07T06:05:28.072Z,100047.34
2022-08-07T06:08:13.789Z,100054.09
2022-08-07T06:10:51.343Z,100049.03
2022-08-07T06:13:20.873Z,100049.22
2022-08-07T06:16:10.186Z,100055.41
2022-08-07T06:18:43.073Z,100061.78
2022-08-07T06:22:16.132Z,100053.47
2022-08-07T06:24:52.437Z,100054.25
2022-08-07T06:26:46.593Z,100053.72
2022-08-07T06:29:14.885Z,100055.13
2022-08-07T06:31:50.323Z,100055.81
2022-08-07T06:34:25.618Z,100055.06
2022-08-07T06:36:57.080Z,100055.22
2022-08-07T06:40:15.756Z,100060.81
2022-08-07T06:42:35.309Z,100059.41
2022-08-07T06:45:18.040Z,100068.44
2022-08-07T06:47:57.213Z,100063.84
2022-08-07T06:50:30.429Z,100051.84
2022-08-07T06:53:00.998Z,100057.56
2022-08-07T06:55:59.860Z,100062.22
2022-08-07T06:58:24.662Z,100050.81
2022-08-07T07:01:03.622Z,100056.13
2022-08-07T07:03:48.805Z,100055.34
2022-08-07T07:06:26.361Z,100059.13
2022-08-07T07:08:55.036Z,100055.63
2022-08-07T07:12:07.442Z,100051.91
2022-08-07T07:14:14.012Z,100052.16
2022-08-07T07:16:50.524Z,100057.59
2022-08-07T07:19:54.820Z,100055.56
2022-08-07T07:22:36.771Z,100056.69
2022-08-07T07:26:31.455Z,100060.53
2022-08-07T07:28:03.390Z,100049.91
2022-08-07T07:30:40.148Z,100046.53
2022-08-07T07:33:11.864Z,100048.50
2022-08-07T07:35:54.240Z,100047.16
2022-08-07T07:38:30.908Z,100041.00
2022-08-07T07:41:02.770Z,100047.06
2022-08-07T07:44:14.019Z,100038.81
2022-08-07T07:46:36.560Z,100036.09
2022-08-07T07:50:29.627Z,100034.16
2022-08-07T07:52:03.783Z,100034.56
2022-08-07T07:54:33.695Z,100037.50
2022-08-07T07:57:03.868Z,100039.34
2022-08-07T07:59:52.925Z,100049.06
2022-08-07T08:02:34.305Z,100047.81
2022-08-07T08:05:14.449Z,100040.63
2022-08-07T08:07:59.697Z,100049.38
2022-08-07T08:10:37.846Z,100032.94
2022-08-07T08:13:10.513Z,100035.69
2022-08-07T08:15:59.148Z,100034.63
2022-08-07T08:18:29.541Z,100033.38
2022-08-07T08:24:01.523Z,100031.88
2022-08-07T08:26:50.467Z,100027.22
2022-08-07T08:29:18.947Z,100032.56
2022-08-07T08:32:16.695Z,100028.44
2022-08-07T08:34:37.199Z,100028.53
2022-08-07T08:37:10.012Z,100026.19
2022-08-07T08:39:58.671Z,100028.22
2022-08-07T08:42:32.188Z,100020.41
2022-08-07T08:45:13.477Z,100020.16
2022-08-07T08:47:51.814Z,100016.28
2022-08-07T08:50:39.830Z,100001.88
2022-08-07T08:53:19.862Z,100003.09
2022-08-07T08:56:01.993Z,100011.97
2022-08-07T08:58:35.545Z,100002.09
2022-08-07T09:01:18.597Z,100014.84
2022-08-07T09:03:56.906Z,100013.81
2022-08-07T09:06:40.232Z,100016.44
2022-08-07T09:09:33.208Z,100015.06
2022-08-07T09:12:31.361Z,100011.81
2022-08-07T09:16:24.459Z,100012.72
2022-08-07T09:18:53.390Z,100006.00
2022-08-07T09:21:34.458Z,99996.69
2022-08-07T09:24:58.920Z,100004.41
2022-08-07T09:27:38.392Z,99997.25
2022-08-07T09:30:28.090Z,99989.81
2022-08-07T09:32:58.254Z,100001.50
2022-08-07T09:36:04.341Z,100002.06
2022-08-07T09:38:21.600Z,99993.91
2022-08-07T09:41:21.242Z,99980.25
2022-08-07T09:44:19.274Z,99973.75
2022-08-07T09:47:52.709Z,99969.25
2022-08-07T09:50:31.065Z,99976.38
2022-08-07T09:53:04.971Z,99970.03
2022-08-07T09:56:03.631Z,99964.16
2022-08-07T09:59:01.118Z,99968.69
2022-08-07T10:02:10.008Z,99959.38
2022-08-07T10:04:58.812Z,99952.09
2022-08-07T10:07:53.028Z,99939.31
2022-08-07T10:11:08.753Z,99944.22
2022-08-07T10:14:01.903Z,99941.03
2022-08-07T10:16:46.750Z,99949.09
2022-08-07T10:19:37.636Z,99946.53
2022-08-07T10:22:16.070Z,99941.16
2022-08-07T10:24:54.869Z,99944.13
2022-08-07T10:27:46.440Z,99943.13
2022-08-07T10:30:27.217Z,99942.94
2022-08-07T10:34:05.994Z,99945.09
2022-08-07T10:36:45.491Z,99939.09
2022-08-07T10:39:41.344Z,99935.69
2022-08-07T10:42:21.220Z,99933.69
2022-08-07T10:44:55.818Z,99925.69
2022-08-07T10:47:55.001Z,99906.72
2022-08-07T10:50:31.666Z,99916.03
2022-08-07T10:53:13.409Z,99909.06
2022-08-07T10:56:02.233Z,99915.41
2022-08-07T10:58:41.621Z,99891.66
2022-08-07T11:01:51.515Z,99906.00
2022-08-07T11:04:46.593Z,99905.06
2022-08-07T11:07:58.879Z,99900.13
2022-08-07T11:10:57.959Z,99904.81
2022-08-07T11:14:44.285Z,99915.41
2022-08-07T11:16:51.303Z,99913.63
2022-08-07T11:19:51.140Z,99926.09
2022-08-07T11:22:33.388Z,99950.63
2022-08-07T11:25:18.405Z,99941.59
2022-08-07T11:28:04.285Z,99955.69
2022-08-07T11:30:45.629Z,99957.91
2022-08-07T11:33:59.081Z,99949.81
2022-08-07T11:36:31.132Z,99950.31
2022-08-07T11:39:20.593Z,99958.97
2022-08-07T11:42:03.170Z,99968.69
2022-08-07T11:44:52.515Z,99958.78
2022-08-07T11:47:56.382Z,99968.28
2022-08-07T11:50:35.643Z,99977.78
2022-08-07T11:53:35.244Z,99983.06
2022-08-07T11:56:26.950Z,99992.38
2022-08-07T11:59:00.425Z,100000.06
2022-08-07T12:02:01.289Z,100006.41
2022-08-07T12:04:40.478Z,100018.91
2022-08-07T12:07:27.193Z,100011.97
2022-08-07T12:10:05.808Z,100006.66
2022-08-07T12:12:39.353Z,100018.25
2022-08-07T12:15:35.654Z,100030.97
2022-08-07T12:18:22.035Z,100036.06
2022-08-07T12:21:15.011Z,100025.28
2022-08-07T12:24:07.217Z,100024.22
2022-08-07T12:26:53.833Z,100034.19
2022-08-07T12:29:37.874Z,100033.84
2022-08-07T12:32:24.381Z,100060.31
2022-08-07T12:34:55.936Z,100077.50
2022-08-07T12:37:28.418Z,100070.00
2022-08-07T12:40:36.100Z,100076.97
2022-08-07T12:43:09.526Z,100072.81
2022-08-07T12:45:53.216Z,100073.91
2022-08-07T12:48:27.764Z,100062.06
2022-08-07T12:50:58.524Z,100072.50
2022-08-07T12:54:23.867Z,100068.22
2022-08-07T12:56:28.228Z,100068.22
2022-08-07T12:58:59.509Z,100070.84
2022-08-07T13:01:32.078Z,100087.63
2022-08-07T13:04:34.077Z,100083.25
2022-08-07T13:08:14.512Z,100089.91
2022-08-07T13:10:40.878Z,100088.69
2022-08-07T13:13:47.278Z,100103.63
2022-08-07T13:16:25.072Z,100108.09
2022-08-07T13:19:45.622Z,100114.28
2022-08-07T13:22:26.887Z,100101.19
2022-08-07T13:25:01.112Z,100095.00
2022-08-07T13:28:10.768Z,100090.22
2022-08-07T13:30:49.126Z,100093.25
2022-08-07T13:34:32.907Z,100092.22
2022-08-07T13:36:39.609Z,100102.00
2022-08-07T13:40:33.275Z,100098.75
2022-08-07T13:42:25.705Z,100099.22
2022-08-07T13:45:20.901Z,100088.19
2022-08-07T13:48:05.810Z,100088.47
2022-08-07T13:50:44.866Z,100075.00
2022-08-07T13:53:35.882Z,100079.84
2022-08-07T13:56:35.831Z,100086.25
2022-08-07T13:59:19.770Z,100082.97
2022-08-07T14:02:10.319Z,100079.56
2022-08-07T14:05:00.642Z,100075.25
2022-08-07T14:07:31.710Z,100076.69
2022-08-07T14:10:12.430Z,100079.88
2022-08-07T14:13:02.965Z,100080.94
2022-08-07T14:15:31.634Z,100087.75
2022-08-07T14:18:31.612Z,100065.66
2022-08-07T14:21:11.791Z,100075.13
2022-08-07T14:24:01.633Z,100070.41
2022-08-07T14:26:50.366Z,100066.66
2022-08-07T14:30:09.527Z,100075.75
2022-08-07T14:32:15.269Z,100069.72
2022-08-07T14:34:47.342Z,100074.13
2022-08-07T14:37:18.351Z,100061.41
2022-08-07T14:40:16.665Z,100063.38
2022-08-07T14:43:00.628Z,100059.97
2022-08-07T14:45:55.425Z,100070.50
2022-08-07T14:48:28.187Z,100064.84
2022-08-07T14:51:01.943Z,100069.28
2022-08-07T14:54:03.679Z,100066.28
2022-08-07T14:56:29.619Z,100061.09
2022-08-07T14:59:13.913Z,100058.59
2022-08-07T15:01:52.487Z,100064.44
2022-08-07T15:04:25.096Z,100079.22
2022-08-07T15:06:53.242Z,100077.97
2022-08-07T15:12:25.940Z,100084.56
2022-08-07T15:20:57.585Z,100106.16
2022-08-07T15:32:06.901Z,100098.69
2022-08-07T15:34:57.227Z,100100.53
2022-08-07T15:38:04.592Z,100106.50
2022-08-07T15:43:52.784Z,100119.94
2022-08-07T15:46:32.284Z,100114.09
2022-08-07T15:49:14.307Z,100117.25
2022-08-07T15:54:34.733Z,100105.72
2022-08-07T15:57:27.835Z,100099.78
2022-08-07T16:00:04.334Z,100094.91
2022-08-07T16:02:41.503Z,100103.19
2022-08-07T16:05:20.673Z,100097.50
2022-08-07T16:08:30.425Z,100108.69
2022-08-07T16:10:57.980Z,100118.16
2022-08-07T16:13:58.695Z,100130.66
2022-08-07T16:16:49.935Z,100135.69
2022-08-07T16:19:42.283Z,100131.03
2022-08-07T16:22:36.471Z,100130.09
2022-08-07T16:25:54.935Z,100126.25
2022-08-07T16:30:05.842Z,100132.56
2022-08-07T16:31:57.875Z,100138.53
2022-08-07T16:34:40.245Z,100144.03
2022-08-07T16:38:05.902Z,100144.28
2022-08-07T16:41:04.290Z,100142.31
2022-08-07T16:44:05.658Z,100147.66
2022-08-07T16:47:18.699Z,100149.97
2022-08-07T16:50:36.980Z,100155.78
2022-08-07T16:54:02.413Z,100154.66
2022-08-07T16:56:50.103Z,100154.78
2022-08-07T16:59:51.533Z,100157.31
2022-08-07T17:02:53.412Z,100161.53
2022-08-07T17:06:19.160Z,100156.31
2022-08-07T17:09:04.265Z,100165.22
2022-08-07T17:12:05.361Z,100160.19
2022-08-07T17:14:43.534Z,100171.03
2022-08-07T17:17:57.070Z,100176.25
2022-08-07T17:20:41.738Z,100191.59
2022-08-07T17:23:17.285Z,100190.44
2022-08-07T17:26:04.596Z,100195.66
2022-08-07T17:29:19.107Z,100195.28
2022-08-07T17:32:31.095Z,100195.84
2022-08-07T17:35:49.853Z,100207.00
2022-08-07T17:38:34.204Z,100196.06
2022-08-07T17:42:02.121Z,100208.69
2022-08-07T17:44:34.060Z,100194.28
2022-08-07T17:47:38.422Z,100197.53
2022-08-07T17:50:42.362Z,100201.25
2022-08-07T17:54:01.120Z,100201.25
2022-08-07T17:56:28.931Z,100200.66
2022-08-07T17:58:56.811Z,100204.78
2022-08-07T18:02:06.020Z,100208.09
2022-08-07T18:04:51.762Z,100209.56
2022-08-07T18:07:52.522Z,100213.88
2022-08-07T18:10:36.986Z,100208.38
2022-08-07T18:13:40.654Z,100217.44
2022-08-07T18:16:16.863Z,100218.84
2022-08-07T18:21:05.803Z,100209.75
2022-08-07T18:22:15.144Z,100221.00
2022-08-07T18:25:23.968Z,100230.66
2022-08-07T18:28:35.546Z,100241.81
2022-08-07T18:31:33.901Z,100242.13
2022-08-07T18:34:35.816Z,100242.69
2022-08-07T18:38:57.835Z,100251.06
2022-08-07T18:40:43.894Z,100244.09
2022-08-07T18:43:49.020Z,100234.00
2022-08-07T18:46:27.820Z,100230.50
2022-08-07T18:50:19.229Z,100242.25
2022-08-07T18:52:38.702Z,100230.94
2022-08-07T18:55:43.476Z,100219.09
2022-08-07T18:58:51.799Z,100222.00
2022-08-07T19:02:32.372Z,100233.94
2022-08-07T19:04:57.627Z,100243.47
2022-08-07T19:07:51.825Z,100255.78
2022-08-07T19:10:31.613Z,100261.69
2022-08-07T19:13:22.905Z,100260.06
2022-08-07T19:17:04.445Z,100257.69
2022-08-07T19:19:08.709Z,100258.72
2022-08-07T19:21:56.257Z,100264.06
2022-08-07T19:24:50.163Z,100254.44
2022-08-07T19:28:57.107Z,100254.44
2022-08-07T19:31:06.451Z,100262.00
2022-08-07T19:33:08.370Z,100255.59
2022-08-07T19:35:42.382Z,100255.59
2022-08-07T19:38:16.880Z,100247.38
2022-08-07T19:40:50.407Z,100244.56
2022-08-07T19:43:45.081Z,100249.66
2022-08-07T19:46:18.763Z,100240.47
2022-08-07T19:48:59.522Z,100243.75
2022-08-07T19:51:52.364Z,100245.81
2022-08-07T19:54:34.717Z,100243.34
2022-08-07T19:58:00.064Z,100237.66
2022-08-07T19:59:58.388Z,100240.47
2022-08-07T20:02:35.309Z,100248.66
2022-08-07T20:05:12.780Z,100242.53
2022-08-07T20:08:01.300Z,100250.25
2022-08-07T20:10:52.329Z,100262.00
2022-08-07T20:13:42.624Z,100252.34
2022-08-07T20:16:22.455Z,100245.81
2022-08-07T20:19:04.558Z,100244.25
2022-08-07T20:21:41.855Z,100250.84
2022-08-07T20:24:28.492Z,100246.78
2022-08-07T20:26:59.067Z,100252.19
2022-08-07T20:29:48.120Z,100251.44
2022-08-07T20:32:25.810Z,100248.25
2022-08-07T20:34:57.766Z,100239.53
2022-08-07T20:37:55.263Z,100234.25
2022-08-07T20:40:33.192Z,100216.88
2022-08-07T20:43:03.349Z,100221.00
2022-08-07T20:46:27.591Z,100226.81
2022-08-07T20:48:31.095Z,100229.50
2022-08-07T20:51:03.709Z,100232.59
2022-08-07T20:54:02.103Z,100240.00
2022-08-07T20:56:27.534Z,100242.47
2022-08-07T20:59:00.974Z,100238.41
2022-08-07T21:01:45.829Z,100248.44
2022-08-07T21:04:23.727Z,100250.53
2022-08-07T21:06:55.265Z,100246.25
2022-08-07T21:09:53.308Z,100245.41
2022-08-07T21:12:28.961Z,100242.13
2022-08-07T21:14:58.830Z,100238.47
2022-08-07T21:18:03.948Z,100231.47
2022-08-07T21:20:26.907Z,100245.03
2022-08-07T21:22:59.491Z,100244.44
2022-08-07T21:26:05.206Z,100256.50
2022-08-07T21:28:48.743Z,100248.75
2022-08-07T21:32:42.969Z,100265.53
2022-08-07T21:34:52.170Z,100262.47
2022-08-07T21:37:22.668Z,100263.94
2022-08-07T21:40:02.887Z,100257.56
2022-08-07T21:42:49.052Z,100260.84
2022-08-07T21:46:10.834Z,100264.34
2022-08-07T21:49:04.665Z,100267.22
2022-08-07T21:51:59.093Z,100260.47
2022-08-07T21:54:35.317Z,100264.38
2022-08-07T21:57:31.637Z,100270.94
2022-08-07T22:00:22.360Z,100267.69
2022-08-07T22:03:10.840Z,100272.19
2022-08-07T22:06:02.245Z,100273.22
2022-08-07T22:08:55.972Z,100271.38
2022-08-07T22:11:24.454Z,100270.56
2022-08-07T22:14:05.079Z,100277.31
2022-08-07T22:16:47.706Z,100293.91
2022-08-07T22:19:41.117Z,100283.69
2022-08-07T22:22:29.041Z,100280.19
2022-08-07T22:25:03.392Z,100274.25
2022-08-07T22:28:02.814Z,100283.88
2022-08-07T22:30:21.629Z,100273.81
2022-08-07T22:32:53.359Z,100279.56
2022-08-07T22:35:23.377Z,100288.59
2022-08-07T22:38:03.255Z,100282.44
2022-08-07T22:41:00.171Z,100278.34
2022-08-07T22:43:39.322Z,100284.69
2022-08-07T22:47:02.265Z,100278.78
2022-08-07T22:49:19.050Z,100277.94
2022-08-07T22:52:10.133Z,100284.09
2022-08-07T22:55:17.470Z,100285.56
2022-08-07T22:58:14.655Z,100282.94
2022-08-07T23:01:15.756Z,100285.81
2022-08-07T23:04:01.947Z,100281.72
2022-08-07T23:07:28.415Z,100289.28
2022-08-07T23:10:37.656Z,100295.66
2022-08-07T23:13:29.488Z,100297.09
2022-08-07T23:16:46.856Z,100301.81
2022-08-07T23:20:15.761Z,100306.91
2022-08-07T23:24:05.823Z,100318.00
2022-08-07T23:26:23.504Z,100306.34
2022-08-07T23:29:42.737Z,100310.22
2022-08-07T23:34:20.774Z,100307.97
2022-08-07T23:36:00.961Z,100310.03
2022-08-07T23:38:42.824Z,100306.34
2022-08-07T23:41:33.305Z,100312.06
2022-08-07T23:44:34.754Z,100317.41
2022-08-07T23:47:29.689Z,100314.53
2022-08-07T23:50:33.979Z,100310.84
2022-08-07T23:53:50.035Z,100321.88
2022-08-07T23:56:20.889Z,100314.13
2022-08-07T23:59:10.935Z,100304.72
